Time;durP1;ratioP1;P1;durP2;ratioP2;P2;SDS_P1;SDS_P2;PMS_P1;PMS_P2;Temp;Humidity;BMP_temperature;BMP_pressure;BME280_temperature;BME280_humidity;BME280_pressure;Samples;Min_cycle;Max_cycle;Signal;HPM_P1;HPM_P2
2023/12/09 00:04:09;;;;;;;115.20;108.97;;;6.90;86.80;;;;;;12544374;28;20049;-71
2023/12/09 00:10:13;;;;;;;106.60;100.60;;;6.90;86.80;;;;;;12544253;28;20347;-71
2023/12/09 00:16:15;;;;;;;99.20;93.88;;;7.00;86.80;;;;;;12543580;28;20037;-71
2023/12/09 00:22:17;;;;;;;91.63;86.35;;;6.90;86.80;;;;;;12560877;28;20444;-71
2023/12/09 00:28:18;;;;;;;83.15;78.15;;;7.00;86.90;;;;;;12542128;28;20044;-71
2023/12/09 00:34:28;;;;;;;102.60;96.93;;;7.00;86.80;;;;;;12542681;28;20029;-71
2023/12/09 00:40:46;;;;;;;109.00;103.68;;;7.00;86.90;;;;;;12560070;28;20040;-71
2023/12/09 00:47:05;;;;;;;102.97;97.33;;;6.90;86.80;;;;;;12542031;28;20032;-71
2023/12/09 00:53:07;;;;;;;103.55;97.70;;;6.80;86.80;;;;;;12540852;28;20072;-71
2023/12/09 00:59:46;;;;;;;106.75;101.13;;;6.90;86.80;;;;;;12558603;28;20036;-71
2023/12/09 01:05:48;;;;;;;58.90;55.10;;;6.80;86.80;;;;;;12559645;28;20027;-71
2023/12/09 01:11:50;;;;;;;105.85;100.10;;;6.70;86.70;;;;;;12559174;28;20270;-71
2023/12/09 01:17:52;;;;;;;92.97;87.65;;;6.70;86.90;;;;;;12558225;28;20025;-71
2023/12/09 01:23:53;;;;;;;86.05;81.00;;;6.90;86.90;;;;;;12540306;28;20048;-71
2023/12/09 01:29:55;;;;;;;116.45;110.57;;;6.90;86.70;;;;;;12539933;28;20029;-71
2023/12/09 01:35:56;;;;;;;109.22;103.80;;;6.80;86.80;;;;;;12539848;28;20047;-71
2023/12/09 01:42:00;;;;;;;107.30;102.25;;;6.80;86.80;;;;;;12556775;28;20029;-71
2023/12/09 01:48:03;;;;;;;135.90;129.18;;;6.70;86.80;;;;;;12556785;28;20025;-71
2023/12/09 01:54:11;;;;;;;95.97;91.07;;;6.70;86.90;;;;;;12556499;28;20040;-71
2023/12/09 02:00:13;;;;;;;98.18;92.68;;;6.60;86.90;;;;;;12556367;28;20347;-71
2023/12/09 02:06:14;;;;;;;82.38;77.43;;;6.70;87.00;;;;;;12555918;28;20033;-71
2023/12/09 02:12:25;;;;;;;77.13;72.22;;;6.70;87.00;;;;;;12555763;28;20082;-71
2023/12/09 02:18:28;;;;;;;79.85;75.57;;;6.70;86.80;;;;;;12555475;28;20028;-71
2023/12/09 02:24:31;;;;;;;78.05;73.40;;;6.60;86.90;;;;;;12556013;28;20340;-71
2023/12/09 02:30:32;;;;;;;84.00;79.22;;;6.60;87.00;;;;;;12554978;28;20036;-71
2023/12/09 02:36:35;;;;;;;76.18;71.43;;;6.60;86.90;;;;;;12554799;28;20347;-71
2023/12/09 02:42:38;;;;;;;74.47;69.85;;;6.60;86.90;;;;;;12554460;28;20443;-71
2023/12/09 02:48:40;;;;;;;66.47;62.22;;;6.50;86.90;;;;;;12554246;28;20355;-71
2023/12/09 02:54:42;;;;;;;62.78;58.60;;;6.40;86.90;;;;;;12536520;28;20072;-71
2023/12/09 03:00:45;;;;;;;79.78;75.70;;;6.40;87.00;;;;;;12553935;28;20040;-71
2023/12/09 03:06:46;;;;;;;83.22;78.10;;;6.50;87.10;;;;;;12553730;28;20036;-71
2023/12/09 03:12:48;;;;;;;76.45;71.70;;;6.70;87.10;;;;;;12536550;28;20032;-71
2023/12/09 03:18:49;;;;;;;90.20;84.97;;;6.60;86.80;;;;;;12535918;28;20274;-71
2023/12/09 03:24:51;;;;;;;81.05;75.97;;;6.70;87.00;;;;;;12553959;28;20039;-71
2023/12/09 03:30:52;;;;;;;88.35;83.18;;;6.60;86.70;;;;;;12553266;28;20029;-74
2023/12/09 03:36:54;;;;;;;101.45;95.90;;;6.70;86.90;;;;;;12553119;28;20043;-74
2023/12/09 03:42:55;;;;;;;79.97;75.32;;;6.60;86.70;;;;;;12552958;28;20036;-71
2023/12/09 03:48:57;;;;;;;91.50;86.32;;;6.60;86.60;;;;;;12553078;28;20025;-71
2023/12/09 03:54:59;;;;;;;96.00;90.53;;;6.60;86.40;;;;;;12535549;28;20037;-71
2023/12/09 04:01:00;;;;;;;86.68;81.85;;;6.60;86.30;;;;;;12554809;28;20029;-71
2023/12/09 04:07:02;;;;;;;70.97;66.53;;;6.60;86.10;;;;;;12527539;28;20045;-71
2023/12/09 04:13:04;;;;;;;78.28;72.93;;;6.50;86.20;;;;;;12561380;28;20028;-71
2023/12/09 04:19:05;;;;;;;67.10;62.72;;;6.50;86.10;;;;;;12561118;28;20029;-71
2023/12/09 04:25:07;;;;;;;52.63;48.90;;;6.30;86.00;;;;;;12561403;28;20040;-71
2023/12/09 04:31:08;;;;;;;62.63;58.88;;;6.20;86.20;;;;;;12560533;28;20027;-71
2023/12/09 04:37:10;;;;;;;43.28;40.00;;;6.20;86.10;;;;;;12542471;28;20032;-71
2023/12/09 04:43:12;;;;;;;46.42;42.78;;;6.10;86.10;;;;;;12559861;28;20029;-71
2023/12/09 04:49:13;;;;;;;55.35;51.90;;;6.20;86.10;;;;;;12542165;28;20037;-71
2023/12/09 04:55:15;;;;;;;59.00;55.22;;;6.10;86.10;;;;;;12559377;28;20351;-71
2023/12/09 05:01:17;;;;;;;45.28;41.40;;;6.00;86.20;;;;;;12542114;28;20063;-71
2023/12/09 05:07:19;;;;;;;62.05;57.75;;;6.20;86.20;;;;;;12558819;28;20343;-71
2023/12/09 05:13:20;;;;;;;66.65;62.75;;;6.30;86.10;;;;;;12540445;28;20052;-71
2023/12/09 05:19:22;;;;;;;43.05;40.13;;;6.20;85.90;;;;;;12541132;28;20135;-71
2023/12/09 05:25:24;;;;;;;46.00;42.85;;;6.20;86.00;;;;;;12557940;28;20467;-71
2023/12/09 05:31:26;;;;;;;43.58;40.45;;;6.10;85.90;;;;;;12557879;28;20056;-71
2023/12/09 05:37:28;;;;;;;45.78;42.60;;;5.90;86.00;;;;;;12557505;28;20029;-71
2023/12/09 05:43:29;;;;;;;50.22;46.67;;;5.90;86.10;;;;;;12557092;28;20033;-71
2023/12/09 05:49:31;;;;;;;65.18;61.15;;;5.90;86.30;;;;;;12556851;28;20025;-71
2023/12/09 05:55:35;;;;;;;56.78;53.40;;;6.00;86.30;;;;;;12557198;28;20040;-71
2023/12/09 06:01:41;;;;;;;37.78;34.92;;;6.20;86.20;;;;;;12538822;28;20032;-71
2023/12/09 06:07:42;;;;;;;49.28;46.15;;;6.10;85.90;;;;;;12539184;28;20040;-71
2023/12/09 06:13:44;;;;;;;68.95;64.63;;;6.10;85.80;;;;;;12538031;28;20088;-71
2023/12/09 06:19:45;;;;;;;59.03;55.78;;;6.10;85.70;;;;;;12555438;28;20350;-71
2023/12/09 06:25:48;;;;;;;39.92;37.05;;;6.10;85.60;;;;;;12554177;28;20419;-71
2023/12/09 06:31:49;;;;;;;49.75;46.60;;;6.00;85.50;;;;;;12537389;28;20045;-71
2023/12/09 06:37:51;;;;;;;43.40;40.53;;;5.90;85.30;;;;;;12555332;28;20040;-71
2023/12/09 06:43:52;;;;;;;40.45;37.47;;;5.90;85.20;;;;;;12554432;28;20029;-71
2023/12/09 06:49:54;;;;;;;55.53;52.03;;;5.80;85.20;;;;;;12559762;22;20432;-71
2023/12/09 06:55:55;;;;;;;52.15;48.10;;;5.80;85.00;;;;;;12552989;28;20056;-71
2023/12/09 07:01:57;;;;;;;35.17;32.40;;;5.70;85.00;;;;;;12553277;28;20050;-71
2023/12/09 07:07:59;;;;;;;48.15;44.17;;;5.50;85.20;;;;;;12553713;28;20037;-71
2023/12/09 07:14:00;;;;;;;44.65;41.50;;;5.30;85.40;;;;;;12553641;28;20347;-71
2023/12/09 07:20:05;;;;;;;47.72;44.63;;;5.00;85.30;;;;;;12554125;28;20044;-74
2023/12/09 07:26:07;;;;;;;48.72;45.60;;;4.90;85.70;;;;;;12553546;28;20367;-74
2023/12/09 07:32:09;;;;;;;48.83;45.60;;;4.90;85.80;;;;;;12552166;28;20033;-74
2023/12/09 07:38:11;;;;;;;61.22;57.53;;;5.00;85.90;;;;;;12557959;28;20033;-74
2023/12/09 07:44:13;;;;;;;43.55;40.65;;;5.30;85.80;;;;;;12562706;28;20466;-74
2023/12/09 07:50:14;;;;;;;53.47;50.38;;;5.40;85.60;;;;;;12561267;28;20037;-74
2023/12/09 07:56:16;;;;;;;56.75;53.40;;;5.40;85.80;;;;;;12561019;28;20037;-74
2023/12/09 08:02:18;;;;;;;75.45;71.35;;;5.50;85.70;;;;;;12561908;28;20040;-74
2023/12/09 08:08:24;;;;;;;71.90;67.32;;;5.50;85.80;;;;;;12562141;28;20037;-74
2023/12/09 08:14:40;;;;;;;71.97;67.65;;;5.50;85.70;;;;;;12560232;28;20478;-74
2023/12/09 08:20:42;;;;;;;76.57;71.72;;;5.40;85.70;;;;;;12561193;28;20040;-74
2023/12/09 08:26:44;;;;;;;51.70;47.85;;;5.50;85.60;;;;;;12560801;28;20044;-74
2023/12/09 08:32:48;;;;;;;47.72;43.70;;;5.50;85.20;;;;;;12560475;28;20044;-74
2023/12/09 08:38:51;;;;;;;82.97;78.28;;;5.60;85.40;;;;;;12560208;28;20035;-74
2023/12/09 08:44:58;;;;;;;55.38;51.22;;;5.70;85.40;;;;;;12559847;28;20055;-74
2023/12/09 08:51:00;;;;;;;79.20;73.68;;;5.70;85.50;;;;;;12558542;28;20033;-74
2023/12/09 08:57:04;;;;;;;68.40;63.72;;;5.70;85.50;;;;;;12559272;28;20037;-74
2023/12/09 09:03:06;;;;;;;71.35;66.65;;;5.70;85.10;;;;;;12558480;28;20033;-74
2023/12/09 09:09:11;;;;;;;59.65;55.67;;;5.70;85.00;;;;;;12557653;28;20033;-74
2023/12/09 09:15:14;;;;;;;87.50;82.00;;;5.90;85.40;;;;;;12557228;28;20333;-74
2023/12/09 09:21:16;;;;;;;70.22;65.03;;;6.00;85.10;;;;;;12558869;28;20032;-74
2023/12/09 09:27:18;;;;;;;82.20;76.95;;;6.10;85.30;;;;;;12556923;28;20037;-74
2023/12/09 09:33:20;;;;;;;83.78;79.03;;;6.20;85.10;;;;;;12556149;28;20059;-74
2023/12/09 09:39:22;;;;;;;94.85;89.10;;;6.20;85.10;;;;;;12557349;28;20485;-74
2023/12/09 09:45:26;;;;;;;98.22;92.57;;;6.30;85.10;;;;;;12555979;28;20033;-74
2023/12/09 09:51:30;;;;;;;127.45;120.38;;;6.40;85.10;;;;;;12555758;28;20036;-74
2023/12/09 09:57:33;;;;;;;121.25;114.45;;;6.50;84.90;;;;;;12555113;28;20037;-74
2023/12/09 10:03:36;;;;;;;121.32;114.82;;;6.60;84.70;;;;;;12556281;28;20037;-75
2023/12/09 10:09:38;;;;;;;119.90;113.70;;;6.60;83.80;;;;;;12554170;28;20071;-74
2023/12/09 10:15:40;;;;;;;125.22;118.97;;;6.80;84.00;;;;;;12554550;28;20041;-75
2023/12/09 10:21:42;;;;;;;143.45;136.77;;;6.90;83.90;;;;;;12555651;28;20443;-74
2023/12/09 10:27:44;;;;;;;181.25;173.02;;;7.10;83.80;;;;;;12553959;28;20443;-74
2023/12/09 10:33:45;;;;;;;171.88;164.25;;;7.20;83.90;;;;;;12538679;28;20049;-74
2023/12/09 10:39:49;;;;;;;146.60;140.18;;;7.40;84.10;;;;;;12554032;28;20033;-74
2023/12/09 10:45:50;;;;;;;128.95;123.25;;;7.50;84.30;;;;;;12553492;28;20033;-74
2023/12/09 10:51:52;;;;;;;71.57;68.07;;;7.70;84.50;;;;;;12554470;28;20029;-74
2023/12/09 10:57:55;;;;;;;48.63;45.00;;;7.80;84.20;;;;;;12554136;28;20459;-74
2023/12/09 11:03:58;;;;;;;37.38;34.67;;;8.00;84.10;;;;;;12554475;28;20032;-75
2023/12/09 11:10:01;;;;;;;29.90;27.33;;;8.10;83.30;;;;;;12556036;28;20040;-72
2023/12/09 11:16:12;;;;;;;21.17;17.42;;;8.20;83.30;;;;;;12541446;28;20034;-72
2023/12/09 11:22:14;;;;;;;21.98;18.85;;;8.50;82.90;;;;;;12520550;28;20033;-72
2023/12/09 11:28:15;;;;;;;23.58;17.58;;;8.70;82.60;;;;;;12520289;28;20048;-72
2023/12/09 11:34:19;;;;;;;16.73;14.48;;;8.70;82.40;;;;;;12519682;28;20048;-72
2023/12/09 11:40:21;;;;;;;20.35;15.25;;;8.90;82.10;;;;;;12520059;28;20033;-72
2023/12/09 11:46:24;;;;;;;25.05;21.33;;;8.90;81.80;;;;;;12520620;28;20044;-72
2023/12/09 11:52:26;;;;;;;28.88;25.08;;;8.70;81.40;;;;;;12519126;28;20042;-71
2023/12/09 11:58:27;;;;;;;27.48;24.73;;;8.50;81.40;;;;;;12519535;28;20044;-71
2023/12/09 12:04:33;;;;;;;21.00;18.33;;;8.60;81.10;;;;;;12519462;28;20044;-72
2023/12/09 12:10:35;;;;;;;21.95;18.98;;;8.70;81.00;;;;;;12520153;28;20029;-71
2023/12/09 12:16:36;;;;;;;21.70;16.17;;;8.70;80.80;;;;;;12519234;28;20040;-72
2023/12/09 12:22:42;;;;;;;20.13;14.88;;;8.80;80.20;;;;;;12499728;28;20050;-72
2023/12/09 12:28:49;;;;;;;18.40;13.27;;;8.90;80.00;;;;;;12511166;28;20033;-72
2023/12/09 12:34:51;;;;;;;18.30;14.93;;;9.00;80.00;;;;;;12510865;28;20033;-71
2023/12/09 12:40:54;;;;;;;14.52;13.02;;;9.00;79.00;;;;;;12510582;28;20033;-71
2023/12/09 12:46:56;;;;;;;16.40;12.93;;;8.90;79.20;;;;;;12510354;28;20030;-72
2023/12/09 12:52:58;;;;;;;15.95;14.15;;;9.00;79.20;;;;;;12508952;28;20448;-71
2023/12/09 12:58:59;;;;;;;17.95;14.52;;;9.00;79.10;;;;;;12510459;28;20030;-71
2023/12/09 13:05:01;;;;;;;16.42;13.88;;;9.00;78.70;;;;;;12509562;28;20029;-72
2023/12/09 13:11:03;;;;;;;18.33;15.20;;;8.90;79.00;;;;;;12509329;28;20344;-71
2023/12/09 13:17:05;;;;;;;24.13;21.70;;;9.00;78.50;;;;;;12509051;28;20348;-71
2023/12/09 13:23:06;;;;;;;21.92;19.65;;;8.90;78.30;;;;;;12508674;28;20037;-71
2023/12/09 13:29:08;;;;;;;26.17;23.15;;;8.80;77.70;;;;;;12509009;28;20025;-71
2023/12/09 13:35:10;;;;;;;25.70;23.20;;;8.70;77.40;;;;;;12507685;28;20387;-71
2023/12/09 13:41:13;;;;;;;30.38;26.63;;;8.70;77.60;;;;;;12509198;28;20045;-72
2023/12/09 13:47:16;;;;;;;37.95;34.10;;;8.60;78.10;;;;;;12506371;28;20037;-71
2023/12/09 13:53:18;;;;;;;39.70;36.58;;;8.60;78.20;;;;;;12507562;28;20036;-71
2023/12/09 13:59:20;;;;;;;46.70;43.35;;;8.50;78.40;;;;;;12507052;28;20029;-71
2023/12/09 14:05:22;;;;;;;52.33;48.38;;;8.50;78.70;;;;;;12506672;28;20037;-71
2023/12/09 14:11:27;;;;;;;63.28;59.40;;;8.50;79.00;;;;;;12506500;28;20029;-71
2023/12/09 14:17:29;;;;;;;59.70;55.90;;;8.40;79.00;;;;;;12506179;28;20029;-72
2023/12/09 14:23:31;;;;;;;59.20;55.63;;;8.40;79.20;;;;;;12505890;28;20041;-72
2023/12/09 14:29:32;;;;;;;35.17;32.30;;;8.50;79.40;;;;;;12504773;28;20037;-72
2023/12/09 14:35:34;;;;;;;29.75;27.02;;;8.70;79.20;;;;;;12505453;28;20048;-71
2023/12/09 14:41:36;;;;;;;28.40;25.30;;;8.70;79.10;;;;;;12505194;28;20037;-71
2023/12/09 14:47:38;;;;;;;41.40;35.20;;;8.70;79.20;;;;;;12504032;28;20075;-71
2023/12/09 14:53:40;;;;;;;47.80;43.50;;;8.50;79.40;;;;;;12542437;22;20049;-72
2023/12/09 14:59:42;;;;;;;80.65;74.80;;;8.40;79.60;;;;;;12536396;28;20044;-71
2023/12/09 15:05:44;;;;;;;65.20;60.17;;;8.20;79.70;;;;;;12536094;28;20056;-71
2023/12/09 15:11:48;;;;;;;119.90;113.35;;;8.20;79.80;;;;;;12536471;28;20037;-72
2023/12/09 15:17:49;;;;;;;201.82;192.38;;;8.00;79.90;;;;;;12535836;28;20470;-72
2023/12/09 15:23:51;;;;;;;207.57;197.05;;;7.90;80.00;;;;;;12553442;28;20048;-72
2023/12/09 15:29:53;;;;;;;159.40;151.95;;;7.80;80.00;;;;;;12533242;28;20036;-72
2023/12/09 15:35:55;;;;;;;204.60;194.73;;;7.70;80.20;;;;;;12520070;28;20056;-72
2023/12/09 15:41:57;;;;;;;187.68;178.20;;;7.60;80.40;;;;;;12553007;28;20040;-72
2023/12/09 15:47:59;;;;;;;195.05;185.63;;;7.60;80.60;;;;;;12535151;28;20352;-72
2023/12/09 15:54:05;;;;;;;155.82;148.10;;;7.50;80.60;;;;;;12552658;28;20043;-72
2023/12/09 16:00:08;;;;;;;143.98;137.30;;;7.40;80.70;;;;;;12542792;28;20355;-72
2023/12/09 16:06:10;;;;;;;137.98;131.60;;;7.40;80.90;;;;;;12561837;28;20443;-72
2023/12/09 16:12:12;;;;;;;184.05;176.07;;;7.40;81.10;;;;;;12543888;28;20029;-72
2023/12/09 16:18:14;;;;;;;162.52;155.27;;;7.40;81.30;;;;;;12561786;28;20033;-72
2023/12/09 16:24:15;;;;;;;173.98;166.32;;;7.40;81.30;;;;;;12543357;28;20044;-72
2023/12/09 16:30:17;;;;;;;157.88;149.98;;;7.40;81.50;;;;;;12543518;28;20032;-72
2023/12/09 16:36:20;;;;;;;145.38;138.55;;;7.40;81.70;;;;;;12542782;28;20033;-72
2023/12/09 16:42:22;;;;;;;166.55;158.20;;;7.30;81.70;;;;;;12560243;28;20029;-72
2023/12/09 16:48:24;;;;;;;155.30;148.25;;;7.20;81.80;;;;;;12560632;28;20339;-72
2023/12/09 16:54:26;;;;;;;151.43;144.52;;;7.20;82.10;;;;;;12542494;28;20350;-72
2023/12/09 17:00:28;;;;;;;115.57;109.55;;;7.20;82.20;;;;;;12560043;28;20033;-72
2023/12/09 17:06:29;;;;;;;99.88;94.47;;;7.20;82.30;;;;;;12559103;28;20043;-72
2023/12/09 17:12:31;;;;;;;100.50;95.22;;;7.10;82.40;;;;;;12558029;28;20362;-72
2023/12/09 17:18:35;;;;;;;116.53;111.18;;;7.00;82.40;;;;;;12558619;28;20076;-72
2023/12/09 17:24:36;;;;;;;101.88;96.85;;;6.90;82.50;;;;;;12524941;28;20337;-72
2023/12/09 17:30:38;;;;;;;116.85;110.85;;;6.90;82.70;;;;;;12558008;28;20029;-72
2023/12/09 17:36:39;;;;;;;105.22;100.28;;;7.00;82.70;;;;;;12557544;28;20044;-72
2023/12/09 17:42:41;;;;;;;84.50;80.25;;;6.90;82.70;;;;;;12523757;28;20051;-72
2023/12/09 17:48:43;;;;;;;98.78;93.80;;;6.80;82.90;;;;;;12557769;28;20032;-72
2023/12/09 17:54:45;;;;;;;79.70;75.82;;;6.80;82.90;;;;;;12557080;28;20034;-74
2023/12/09 18:00:46;;;;;;;82.72;78.28;;;6.70;83.00;;;;;;12556518;28;20028;-75
2023/12/09 18:06:48;;;;;;;78.43;74.15;;;6.60;83.10;;;;;;12556742;28;20033;-75
2023/12/09 18:12:50;;;;;;;75.07;71.25;;;6.70;83.20;;;;;;12538809;28;20356;-75
2023/12/09 18:18:52;;;;;;;70.30;66.45;;;6.70;83.20;;;;;;12555627;28;20036;-75
2023/12/09 18:24:53;;;;;;;73.65;69.63;;;6.70;83.20;;;;;;12555906;28;20352;-75
2023/12/09 18:30:55;;;;;;;83.70;79.03;;;6.60;83.20;;;;;;12555130;28;20029;-75
2023/12/09 18:36:56;;;;;;;78.18;73.68;;;6.60;83.20;;;;;;12555020;28;20043;-75
2023/12/09 18:42:59;;;;;;;86.35;81.63;;;6.60;83.30;;;;;;12537180;28;20035;-75
2023/12/09 18:49:00;;;;;;;71.18;67.18;;;6.60;83.30;;;;;;12554436;28;20045;-75
2023/12/09 18:55:02;;;;;;;69.72;65.70;;;6.60;83.30;;;;;;12554202;28;20443;-75
2023/12/09 19:01:06;;;;;;;85.18;80.30;;;6.60;83.40;;;;;;12536472;28;20403;-74
2023/12/09 19:07:08;;;;;;;70.72;67.05;;;6.50;83.50;;;;;;12553944;28;20394;-75
2023/12/09 19:13:31;;;;;;;80.78;76.25;;;6.50;83.40;;;;;;12553845;28;20135;-75
2023/12/09 19:19:35;;;;;;;66.43;62.30;;;6.50;83.50;;;;;;12553651;28;20308;-75
2023/12/09 19:25:58;;;;;;;75.80;71.55;;;6.60;83.60;;;;;;12535799;28;20045;-74
2023/12/09 19:32:13;;;;;;;81.85;76.55;;;6.40;83.50;;;;;;12555752;28;20025;-74
2023/12/09 19:38:14;;;;;;;80.50;74.05;;;6.40;83.60;;;;;;12529284;28;20045;-75
2023/12/09 19:44:16;;;;;;;85.57;79.70;;;6.30;83.50;;;;;;12562969;28;20033;-75
2023/12/09 19:50:41;;;;;;;81.18;76.10;;;6.20;83.50;;;;;;12544978;28;20052;-75
2023/12/09 19:56:43;;;;;;;84.40;78.38;;;6.20;83.50;;;;;;12544576;28;20029;-74
2023/12/09 20:02:47;;;;;;;82.60;76.88;;;6.10;83.50;;;;;;12562188;28;20355;-75
2023/12/09 20:08:48;;;;;;;52.08;48.28;;;6.10;83.50;;;;;;12544035;28;20048;-75
2023/12/09 20:14:50;;;;;;;81.90;76.78;;;6.10;83.60;;;;;;12561609;28;20363;-75
2023/12/09 20:20:52;;;;;;;72.90;67.60;;;6.10;83.60;;;;;;12543436;28;20044;-75
2023/12/09 20:26:53;;;;;;;62.03;57.50;;;6.10;83.70;;;;;;12560975;28;20044;-74
2023/12/09 20:32:55;;;;;;;49.78;46.30;;;6.10;83.70;;;;;;12560861;28;20358;-75
2023/12/09 20:38:57;;;;;;;70.45;65.43;;;6.10;83.60;;;;;;12560537;28;20037;-75
2023/12/09 20:45:01;;;;;;;84.60;79.30;;;6.10;83.80;;;;;;12558877;28;20052;-75
2023/12/09 20:51:07;;;;;;;94.28;88.93;;;6.20;83.90;;;;;;12559813;28;20033;-75
2023/12/09 20:57:08;;;;;;;83.78;78.90;;;6.30;84.10;;;;;;12559678;28;20033;-76
2023/12/09 21:03:43;;;;;;;85.60;80.03;;;6.40;84.20;;;;;;12561248;28;20053;-75
2023/12/09 21:09:44;;;;;;;93.90;88.28;;;6.50;84.30;;;;;;12559004;28;20044;-75
2023/12/09 21:15:46;;;;;;;110.43;103.95;;;6.50;84.20;;;;;;12558777;28;20025;-75
2023/12/09 21:21:48;;;;;;;95.05;89.55;;;6.50;84.30;;;;;;12558536;28;20032;-75
2023/12/09 21:27:50;;;;;;;85.35;79.90;;;6.50;84.40;;;;;;12558187;28;20025;-75
2023/12/09 21:33:52;;;;;;;81.93;77.22;;;6.40;84.50;;;;;;12557942;28;20036;-75
2023/12/09 21:39:53;;;;;;;99.78;92.63;;;6.40;84.40;;;;;;12558534;28;20024;-75
2023/12/09 21:45:55;;;;;;;69.55;65.55;;;6.30;84.40;;;;;;12539483;28;20040;-75
2023/12/09 21:51:57;;;;;;;80.60;75.75;;;6.20;84.40;;;;;;12556925;28;20029;-75
2023/12/09 21:57:59;;;;;;;71.22;67.05;;;6.20;84.50;;;;;;12556394;28;20450;-75
2023/12/09 22:04:02;;;;;;;80.60;76.05;;;6.20;84.50;;;;;;12556395;28;20522;-75
2023/12/09 22:10:05;;;;;;;64.28;60.28;;;6.20;84.50;;;;;;12538250;28;20041;-75
2023/12/09 22:16:07;;;;;;;69.75;64.53;;;6.20;84.50;;;;;;12538272;28;20167;-75
2023/12/09 22:22:09;;;;;;;67.88;64.13;;;6.20;84.40;;;;;;12556270;28;20036;-75
2023/12/09 22:28:11;;;;;;;69.55;65.07;;;6.20;84.50;;;;;;12555382;28;20033;-75
2023/12/09 22:34:13;;;;;;;79.45;74.93;;;6.20;84.60;;;;;;12555110;28;20040;-75
2023/12/09 22:40:15;;;;;;;66.78;62.53;;;6.30;84.50;;;;;;12555632;28;20017;-75
2023/12/09 22:46:27;;;;;;;87.90;82.53;;;6.40;84.50;;;;;;12537372;28;20044;-75
2023/12/09 22:52:30;;;;;;;88.45;83.40;;;6.30;84.70;;;;;;12560594;22;20379;-75
2023/12/09 22:58:31;;;;;;;75.18;70.53;;;6.30;84.80;;;;;;12536575;28;20037;-74
2023/12/09 23:04:34;;;;;;;85.10;79.80;;;6.40;84.80;;;;;;12537199;28;20045;-74
2023/12/09 23:10:36;;;;;;;101.85;96.07;;;6.50;84.90;;;;;;12535878;28;20041;-75
2023/12/09 23:16:37;;;;;;;87.60;82.88;;;6.50;85.00;;;;;;12553780;28;20033;-75
2023/12/09 23:22:39;;;;;;;90.97;85.78;;;6.40;84.90;;;;;;12553641;28;20440;-76
2023/12/09 23:28:41;;;;;;;94.90;89.40;;;6.30;85.10;;;;;;12553382;28;20443;-75
2023/12/09 23:34:44;;;;;;;112.53;106.78;;;6.40;85.20;;;;;;12553398;28;20033;-75
2023/12/09 23:40:50;;;;;;;84.53;79.53;;;6.40;85.30;;;;;;12553205;28;20055;-75
2023/12/09 23:46:52;;;;;;;79.10;74.93;;;6.30;85.10;;;;;;12553011;28;20337;-75
2023/12/09 23:52:54;;;;;;;71.75;67.40;;;6.20;85.10;;;;;;12552895;28;20439;-75
2023/12/09 23:58:56;;;;;;;69.85;65.18;;;6.20;85.20;;;;;;12535151;28;20040;-74
